Station Historical Data
 
Daily Summary for August 17, 2017 Units:  Metric    English   Both
« Previous Day
Next Day »
Daily Weekly Monthly Yearly Custom
  Current: High: Low: Average:
Temperature: 32.7 °C 32.9 °C 21.2 °C 26.5 °C
Dew Point: 17.3 °C 19.3 °C 17.3 °C 18.2 °C
Humidity: 40 % 81 % 40 % 62 %
Wind Speed: 1.6 km/h 12.9 km/h 0.0 km/h 3.7 km/h
Wind Gust: 0.0 km/h 16.1 km/h - -
Wind:NE - - East
Pressure: 1015.1 hPa 1017.5 hPa 1015.1 hPa -
Precipitation: 0.0 mm      
Historical Graphs
 
 
Tabular Data for August 17, 2017
Time Temperature Dew Point Pressure Wind Wind Speed Wind Gust Humidity Rainfall Rate (Hourly) solar Conditions
00:02 24.6 °C 19.2 °C 1015.5 hPa East 8.0 km/h 8.0 km/h 72 % 0.0 mm 0.0 W/m2 SCT
00:07 24.2 °C 19.1 °C 1015.5 hPa East 5.6 km/h 5.6 km/h 73 % 0.0 mm 0.0 W/m2 SCT
00:12 24.1 °C 19.1 °C 1015.5 hPa East 7.4 km/h 7.4 km/h 74 % 0.0 mm 0.0 W/m2 SCT
00:17 23.9 °C 19.0 °C 1015.5 hPa East 3.7 km/h 3.7 km/h 74 % 0.0 mm 0.0 W/m2 SCT
00:22 23.9 °C 18.9 °C 1015.5 hPa East 1.9 km/h   74 % 0.0 mm 0.0 W/m2 SCT
00:27 23.9 °C 18.8 °C 1015.5 hPa East 3.2 km/h 3.2 km/h 73 % 0.0 mm 0.0 W/m2 SCT
00:32 23.9 °C 18.6 °C 1015.5 hPa East 3.7 km/h 3.7 km/h 72 % 0.0 mm 0.0 W/m2 SCT
00:38 24.0 °C 18.4 °C 1015.5 hPa East 5.6 km/h 5.6 km/h 71 % 0.0 mm 0.0 W/m2 SCT
00:43 24.2 °C 18.3 °C 1015.8 hPa East 3.7 km/h 3.7 km/h 70 % 0.0 mm 0.0 W/m2 SCT
00:48 24.3 °C 18.2 °C 1015.8 hPa ENE 3.7 km/h 3.7 km/h 69 % 0.0 mm 0.0 W/m2 SCT
00:53 24.3 °C 18.3 °C 1015.8 hPa ENE 3.7 km/h 3.7 km/h 69 % 0.0 mm 0.0 W/m2 SCT
00:58 24.4 °C 18.2 °C 1015.8 hPa ENE 3.2 km/h 3.2 km/h 68 % 0.0 mm 0.0 W/m2 SCT
01:03 24.4 °C 18.4 °C 1015.8 hPa NE 5.6 km/h 5.6 km/h 69 % 0.0 mm 0.0 W/m2 SCT
01:08 24.5 °C 18.4 °C 1015.5 hPa NE 3.7 km/h 3.7 km/h 69 % 0.0 mm 0.0 W/m2 SCT
01:13 24.4 °C 18.6 °C 1015.8 hPa NE 3.7 km/h 3.7 km/h 70 % 0.0 mm 0.0 W/m2 SCT
01:18 24.4 °C 18.3 °C 1015.8 hPa NE 3.7 km/h 3.7 km/h 69 % 0.0 mm 0.0 W/m2 SCT
01:23 24.3 °C 18.5 °C 1015.8 hPa NE 3.7 km/h 3.7 km/h 70 % 0.0 mm 0.0 W/m2 SCT
01:28 24.2 °C 18.4 °C 1015.8 hPa NE 3.7 km/h 3.7 km/h 70 % 0.0 mm 0.0 W/m2 SCT
01:33 24.1 °C 18.3 °C 1015.8 hPa NE 5.6 km/h 5.6 km/h 70 % 0.0 mm 0.0 W/m2 SCT
01:38 24.1 °C 18.2 °C 1015.8 hPa NE 5.6 km/h 5.6 km/h 70 % 0.0 mm 0.0 W/m2 SCT
01:43 24.1 °C 18.2 °C 1015.8 hPa NE 6.4 km/h 6.4 km/h 70 % 0.0 mm 0.0 W/m2 SCT
01:48 24.1 °C 18.3 °C 1015.8 hPa NE 6.4 km/h 6.4 km/h 70 % 0.0 mm 0.0 W/m2 SCT
01:53 24.1 °C 18.3 °C 1015.8 hPa NE 3.7 km/h 3.7 km/h 70 % 0.0 mm 0.0 W/m2 SCT
01:58 24.1 °C 18.2 °C 1015.8 hPa NE 5.6 km/h 5.6 km/h 70 % 0.0 mm 0.0 W/m2 SCT
02:03 24.0 °C 18.2 °C 1015.8 hPa NE 3.7 km/h 3.7 km/h 70 % 0.0 mm 0.0 W/m2 SCT
02:08 24.0 °C 18.2 °C 1015.5 hPa NE 3.7 km/h 3.7 km/h 70 % 0.0 mm 0.0 W/m2 SCT
02:14 23.9 °C 18.1 °C 1015.8 hPa NE 5.6 km/h 5.6 km/h 70 % 0.0 mm 0.0 W/m2 SCT
02:19 23.9 °C 18.1 °C 1015.8 hPa NE 5.6 km/h 5.6 km/h 70 % 0.0 mm 0.0 W/m2 SCT
02:24 23.8 °C 18.1 °C 1015.8 hPa NE 5.6 km/h 5.6 km/h 70 % 0.0 mm 0.0 W/m2 SCT
02:29 23.8 °C 18.0 °C 1015.5 hPa NE 3.7 km/h 3.7 km/h 70 % 0.0 mm 0.0 W/m2 SCT
02:34 23.8 °C 18.2 °C 1015.5 hPa NE 3.2 km/h 3.2 km/h 71 % 0.0 mm 0.0 W/m2 SCT
02:39 23.7 °C 18.2 °C 1015.5 hPa NE 3.7 km/h 3.7 km/h 71 % 0.0 mm 0.0 W/m2 SCT
02:44 23.7 °C 18.1 °C 1015.5 hPa ENE 3.7 km/h 3.7 km/h 71 % 0.0 mm 0.0 W/m2 SCT
02:49 23.7 °C 18.1 °C 1015.5 hPa ENE 3.7 km/h 3.7 km/h 71 % 0.0 mm 0.0 W/m2 SCT
02:54 23.7 °C 18.1 °C 1015.5 hPa ENE 4.8 km/h 4.8 km/h 71 % 0.0 mm 0.0 W/m2 SCT
02:59 23.6 °C 18.1 °C 1015.5 hPa ENE 6.4 km/h 6.4 km/h 71 % 0.0 mm 0.0 W/m2 SCT
03:04 23.6 °C 18.0 °C 1015.5 hPa East 8.0 km/h 8.0 km/h 71 % 0.0 mm 0.0 W/m2 SCT
03:09 23.5 °C 17.9 °C 1015.5 hPa ENE 5.6 km/h 5.6 km/h 71 % 0.0 mm 0.0 W/m2 SCT
03:14 23.4 °C 18.1 °C 1015.5 hPa East 3.7 km/h 3.7 km/h 72 % 0.0 mm 0.0 W/m2 SCT
03:19 23.4 °C 18.1 °C 1015.5 hPa ENE 5.6 km/h 5.6 km/h 72 % 0.0 mm 0.0 W/m2 SCT
03:24 23.4 °C 18.1 °C 1015.5 hPa ENE 3.7 km/h 3.7 km/h 72 % 0.0 mm 0.0 W/m2 SCT
03:29 23.4 °C 18.1 °C 1015.5 hPa ENE 1.6 km/h   72 % 0.0 mm 0.0 W/m2 SCT
03:35 23.3 °C 18.0 °C 1015.5 hPa Calm     72 % 0.0 mm 0.0 W/m2 SCT
03:40 23.3 °C 17.9 °C 1015.5 hPa ENE 1.6 km/h 3.2 km/h 72 % 0.0 mm 0.0 W/m2 CLR
03:45 23.2 °C 17.9 °C 1015.8 hPa ENE 1.6 km/h 3.2 km/h 72 % 0.0 mm 0.0 W/m2 CLR
03:50 23.2 °C 17.8 °C 1015.8 hPa ENE 1.6 km/h 3.2 km/h 72 % 0.0 mm 0.0 W/m2 CLR
03:55 23.1 °C 18.0 °C 1015.8 hPa ENE 1.6 km/h 3.2 km/h 73 % 0.0 mm 0.0 W/m2 CLR
04:00 23.0 °C 17.9 °C 1015.8 hPa ENE 1.6 km/h 3.2 km/h 73 % 0.0 mm 0.0 W/m2 CLR
04:05 22.9 °C 17.8 °C 1015.8 hPa ENE 1.6 km/h 3.2 km/h 73 % 0.0 mm 0.0 W/m2 CLR
04:10 22.9 °C 17.8 °C 1015.8 hPa Calm   3.2 km/h 73 % 0.0 mm 0.0 W/m2 CLR
04:15 22.9 °C 17.8 °C 1015.8 hPa Calm     73 % 0.0 mm 0.0 W/m2 CLR
04:20 22.8 °C 17.9 °C 1015.8 hPa Calm     74 % 0.0 mm 0.0 W/m2 CLR
04:25 22.8 °C 17.9 °C 1015.8 hPa ENE 1.6 km/h 3.2 km/h 74 % 0.0 mm 0.0 W/m2 CLR
04:30 22.7 °C 17.8 °C 1015.8 hPa ENE 1.6 km/h 3.2 km/h 74 % 0.0 mm 0.0 W/m2 CLR
04:35 22.7 °C 17.8 °C 1015.8 hPa Calm   1.6 km/h 74 % 0.0 mm 0.0 W/m2 CLR
04:40 22.6 °C 17.7 °C 1015.8 hPa Calm     74 % 0.0 mm 0.0 W/m2 CLR
04:45 22.6 °C 17.9 °C 1015.8 hPa Calm     75 % 0.0 mm 0.0 W/m2 CLR
04:50 22.5 °C 17.8 °C 1015.8 hPa Calm     75 % 0.0 mm 0.0 W/m2 CLR
04:55 22.4 °C 17.8 °C 1015.8 hPa Calm     75 % 0.0 mm 0.0 W/m2 CLR
05:00 22.4 °C 17.8 °C 1015.8 hPa Calm     75 % 0.0 mm 0.0 W/m2 CLR
05:05 22.4 °C 17.7 °C 1015.8 hPa Calm     75 % 0.0 mm 0.0 W/m2 CLR
05:10 22.3 °C 17.9 °C 1015.8 hPa Calm     76 % 0.0 mm 0.0 W/m2 CLR
05:15 22.3 °C 17.8 °C 1015.8 hPa Calm     76 % 0.0 mm 0.0 W/m2 CLR
05:20 22.2 °C 18.0 °C 1015.8 hPa Calm     77 % 0.0 mm 0.0 W/m2 CLR
05:25 22.2 °C 17.9 °C 1015.8 hPa ENE 1.6 km/h 3.2 km/h 77 % 0.0 mm 0.0 W/m2 CLR
05:30 22.1 °C 17.8 °C 1015.8 hPa ENE 1.6 km/h 3.2 km/h 77 % 0.0 mm 0.0 W/m2 CLR
05:35 22.0 °C 17.8 °C 1015.8 hPa Calm   1.6 km/h 77 % 0.0 mm 0.0 W/m2 CLR
05:37 22.0 °C 17.8 °C 1015.8 hPa Calm     77 % 0.0 mm 0.0 W/m2 SCT
05:40 22.0 °C 17.8 °C 1015.8 hPa Calm     77 % 0.0 mm 0.0 W/m2 SCT
05:45 21.9 °C 17.7 °C 1015.8 hPa ENE 3.7 km/h 3.7 km/h 77 % 0.0 mm 0.0 W/m2 SCT
05:50 21.9 °C 17.7 °C 1015.8 hPa ENE 3.7 km/h 3.7 km/h 77 % 0.0 mm 0.0 W/m2 SCT
05:55 21.8 °C 17.8 °C 1015.8 hPa East 3.7 km/h 3.7 km/h 78 % 0.0 mm 0.0 W/m2 SCT
06:00 21.8 °C 17.8 °C 1015.8 hPa East 3.2 km/h 3.2 km/h 78 % 0.0 mm 0.0 W/m2 SCT
06:05 21.7 °C 17.7 °C 1016.1 hPa East 3.7 km/h 3.7 km/h 78 % 0.0 mm 0.0 W/m2 SCT
06:10 21.7 °C 17.7 °C 1016.1 hPa East 3.7 km/h 3.7 km/h 78 % 0.0 mm 0.0 W/m2 SCT
06:16 21.7 °C 17.9 °C 1015.8 hPa East 1.9 km/h   79 % 0.0 mm 0.0 W/m2 SCT
06:21 21.7 °C 17.9 °C 1016.1 hPa Calm     79 % 0.0 mm 0.0 W/m2 SCT
06:26 21.6 °C 17.8 °C 1016.1 hPa Calm     79 % 0.0 mm 0.0 W/m2 SCT
06:31 21.6 °C 17.8 °C 1016.1 hPa Calm     79 % 0.0 mm 5.0 W/m2 SCT
06:36 21.6 °C 17.8 °C 1016.1 hPa Calm     79 % 0.0 mm 9.0 W/m2 SCT
06:41 21.5 °C 17.7 °C 1016.1 hPa Calm     79 % 0.0 mm 11.0 W/m2 SCT
06:46 21.4 °C 17.8 °C 1016.1 hPa Calm     80 % 0.0 mm 14.0 W/m2 SCT
06:51 21.3 °C 17.7 °C 1016.1 hPa Calm     80 % 0.0 mm 19.0 W/m2 SCT
06:56 21.3 °C 17.7 °C 1016.1 hPa Calm     80 % 0.0 mm 25.0 W/m2 SCT
07:01 21.2 °C 17.6 °C 1016.1 hPa Calm     80 % 0.0 mm 28.0 W/m2 SCT
07:06 21.2 °C 17.8 °C 1016.1 hPa East 3.2 km/h 3.2 km/h 81 % 0.0 mm 35.0 W/m2 SCT
07:11 21.3 °C 17.9 °C 1016.5 hPa East 1.9 km/h 1.9 km/h 81 % 0.0 mm 46.0 W/m2 SCT
07:16 21.3 °C 17.9 °C 1016.5 hPa Calm     81 % 0.0 mm 39.0 W/m2 SCT
07:21 21.3 °C 17.9 °C 1016.5 hPa NE 3.7 km/h 3.7 km/h 81 % 0.0 mm 42.0 W/m2 SCT
07:26 21.4 °C 18.0 °C 1016.5 hPa NNW 5.6 km/h 5.6 km/h 81 % 0.0 mm 77.0 W/m2 SCT
07:31 21.4 °C 18.1 °C 1016.8 hPa NNW 5.6 km/h 5.6 km/h 81 % 0.0 mm 90.0 W/m2 SCT
07:36 21.5 °C 18.1 °C 1016.8 hPa NNW 3.7 km/h 3.7 km/h 81 % 0.0 mm 98.0 W/m2 SCT
07:41 21.6 °C 18.2 °C 1016.8 hPa NNW 3.7 km/h 3.7 km/h 81 % 0.0 mm 114.0 W/m2 SCT
07:46 21.7 °C 18.3 °C 1016.8 hPa NNW 5.6 km/h 5.6 km/h 81 % 0.0 mm 127.0 W/m2 SCT
07:52 21.9 °C 18.3 °C 1016.8 hPa NNW 3.7 km/h 3.7 km/h 80 % 0.0 mm 137.0 W/m2 FEW
07:57 22.1 °C 18.4 °C 1016.8 hPa NNW 5.6 km/h 5.6 km/h 80 % 0.0 mm 151.0 W/m2 FEW
08:02 22.2 °C 18.3 °C 1016.8 hPa NNW 5.6 km/h 5.6 km/h 79 % 0.0 mm 169.0 W/m2 FEW
08:07 22.3 °C 18.5 °C 1016.8 hPa NNW 1.9 km/h 1.9 km/h 79 % 0.0 mm 183.0 W/m2 FEW
08:12 22.5 °C 18.4 °C 1016.8 hPa NNW 4.8 km/h 4.8 km/h 78 % 0.0 mm 186.0 W/m2 FEW
08:17 22.7 °C 18.5 °C 1016.8 hPa NNW 5.6 km/h 5.6 km/h 77 % 0.0 mm 190.0 W/m2 FEW
08:22 22.9 °C 18.7 °C 1016.8 hPa NNW 5.6 km/h 5.6 km/h 77 % 0.0 mm 185.0 W/m2 FEW
08:27 23.2 °C 18.6 °C 1016.8 hPa ENE 5.6 km/h 5.6 km/h 75 % 0.0 mm 190.0 W/m2 SCT
08:32 23.4 °C 18.6 °C 1016.8 hPa NE 3.7 km/h 3.7 km/h 74 % 0.0 mm 195.0 W/m2 SCT
08:38 23.8 °C 18.7 °C 1016.8 hPa ENE 3.7 km/h 3.7 km/h 73 % 0.0 mm 213.0 W/m2 SCT
08:43 24.0 °C 18.8 °C 1016.8 hPa NNE 3.7 km/h 3.7 km/h 73 % 0.0 mm 239.0 W/m2 SCT
08:48 24.2 °C 19.0 °C 1016.8 hPa NNE 4.8 km/h 4.8 km/h 73 % 0.0 mm 244.0 W/m2 SCT
08:53 24.4 °C 19.0 °C 1016.8 hPa NNE 3.7 km/h 3.7 km/h 72 % 0.0 mm 246.0 W/m2 SCT
08:58 24.6 °C 18.7 °C 1016.8 hPa NNE 3.7 km/h 3.7 km/h 70 % 0.0 mm 257.0 W/m2 SCT
09:03 24.8 °C 18.9 °C 1017.2 hPa East 1.9 km/h 1.9 km/h 70 % 0.0 mm 278.0 W/m2 SCT
09:08 25.1 °C 18.8 °C 1017.2 hPa NE 5.6 km/h 5.6 km/h 68 % 0.0 mm 306.0 W/m2 FEW
09:13 25.3 °C 18.4 °C 1017.2 hPa East 7.4 km/h 7.4 km/h 66 % 0.0 mm 311.0 W/m2 FEW
09:14 25.3 °C 18.5 °C 1017.2 hPa East 8.0 km/h 8.0 km/h 66 % 0.0 mm 313.0 W/m2 FEW
09:19 25.5 °C 18.7 °C 1017.2 hPa ENE 4.8 km/h 4.8 km/h 66 % 0.0 mm 322.0 W/m2 FEW
09:25 25.7 °C 18.6 °C 1017.2 hPa SE 6.4 km/h 6.4 km/h 65 % 0.0 mm 330.0 W/m2 FEW
09:30 25.8 °C 18.8 °C 1017.2 hPa ESE 3.2 km/h 8.0 km/h 65 % 0.0 mm 343.0 W/m2 SCT
09:35 26.0 °C 18.9 °C 1017.2 hPa ESE 3.2 km/h 8.0 km/h 65 % 0.0 mm 350.0 W/m2 SCT
09:40 26.1 °C 18.8 °C 1017.2 hPa East 3.2 km/h 8.0 km/h 64 % 0.0 mm 360.0 W/m2 SCT
09:45 26.1 °C 18.5 °C 1017.2 hPa ENE 3.2 km/h 8.0 km/h 63 % 0.0 mm 362.0 W/m2 SCT
09:50 26.1 °C 18.2 °C 1017.2 hPa ENE 4.8 km/h 8.0 km/h 62 % 0.0 mm 376.0 W/m2 SCT
09:55 26.2 °C 18.6 °C 1017.2 hPa East 4.8 km/h 9.7 km/h 63 % 0.0 mm 438.0 W/m2 FEW
10:00 26.3 °C 18.7 °C 1017.2 hPa East 4.8 km/h 8.0 km/h 63 % 0.0 mm 461.0 W/m2 FEW
10:05 26.4 °C 18.8 °C 1017.2 hPa ENE 1.6 km/h 4.8 km/h 63 % 0.0 mm 480.0 W/m2 FEW
10:10 26.6 °C 19.0 °C 1017.2 hPa ENE 3.2 km/h 4.8 km/h 63 % 0.0 mm 494.0 W/m2 FEW
10:15 26.9 °C 19.3 °C 1017.2 hPa East 3.2 km/h 9.7 km/h 63 % 0.0 mm 513.0 W/m2 FEW
10:20 27.1 °C 18.9 °C 1017.2 hPa ENE 1.6 km/h 6.4 km/h 61 % 0.0 mm 512.0 W/m2 FEW
10:25 27.3 °C 19.1 °C 1017.2 hPa NE 3.2 km/h 6.4 km/h 61 % 0.0 mm 533.0 W/m2 FEW
10:30 27.5 °C 19.1 °C 1017.5 hPa ENE 4.8 km/h 8.0 km/h 60 % 0.0 mm 524.0 W/m2 FEW
10:35 27.8 °C 19.1 °C 1017.5 hPa Calm   4.8 km/h 59 % 0.0 mm 540.0 W/m2 FEW
10:45 28.3 °C 18.9 °C 1017.5 hPa NE 1.6 km/h 6.4 km/h 57 % 0.0 mm 577.0 W/m2 FEW
10:50 28.4 °C 18.8 °C 1017.5 hPa ENE 1.6 km/h 6.4 km/h 56 % 0.0 mm 578.0 W/m2 FEW
10:55 28.7 °C 19.0 °C 1017.5 hPa ESE 3.2 km/h 8.0 km/h 56 % 0.0 mm 585.0 W/m2 FEW
11:00 28.8 °C 19.1 °C 1017.5 hPa East 4.8 km/h 8.0 km/h 56 % 0.0 mm 599.0 W/m2 FEW
11:05 28.9 °C 18.9 °C 1017.2 hPa East 8.0 km/h 11.3 km/h 55 % 0.0 mm 622.0 W/m2 FEW
11:10 28.9 °C 18.9 °C 1017.2 hPa East 1.6 km/h 11.3 km/h 55 % 0.0 mm 635.0 W/m2 FEW
11:15 29.2 °C 18.9 °C 1016.8 hPa ESE 3.2 km/h 4.8 km/h 54 % 0.0 mm 645.0 W/m2 FEW
11:20 29.3 °C 18.8 °C 1016.8 hPa ESE 9.7 km/h 16.1 km/h 53 % 0.0 mm 647.0 W/m2 FEW
11:25 29.3 °C 18.7 °C 1016.8 hPa ESE 8.0 km/h 16.1 km/h 53 % 0.0 mm 661.0 W/m2 FEW
11:30 29.2 °C 18.3 °C 1016.8 hPa ESE 4.8 km/h 14.5 km/h 52 % 0.0 mm 679.0 W/m2 CLR
11:35 29.3 °C 18.4 °C 1016.8 hPa East 8.0 km/h 11.3 km/h 52 % 0.0 mm 580.0 W/m2 FEW
11:40 29.4 °C 18.8 °C 1016.8 hPa East 9.7 km/h 14.5 km/h 53 % 0.0 mm 694.0 W/m2 CLR
11:45 29.4 °C 18.6 °C 1016.8 hPa East 4.8 km/h 14.5 km/h 52 % 0.0 mm 693.0 W/m2 CLR
11:50 29.4 °C 18.6 °C 1016.8 hPa East 11.3 km/h 16.1 km/h 52 % 0.0 mm 714.0 W/m2 CLR
11:55 29.3 °C 18.4 °C 1016.8 hPa ESE 1.6 km/h 14.5 km/h 52 % 0.0 mm 722.0 W/m2 CLR
12:00 29.6 °C 18.4 °C 1016.8 hPa ESE 4.8 km/h 11.3 km/h 51 % 0.0 mm 728.0 W/m2 CLR
12:05 29.9 °C 18.6 °C 1016.8 hPa SE 3.2 km/h 12.9 km/h 51 % 0.0 mm 721.0 W/m2 CLR
12:10 30.1 °C 18.8 °C 1016.8 hPa SE 8.0 km/h 12.9 km/h 51 % 0.0 mm 735.0 W/m2 CLR
12:15 30.1 °C 18.5 °C 1016.8 hPa East 8.0 km/h 14.5 km/h 50 % 0.0 mm 745.0 W/m2 CLR
12:20 29.9 °C 18.7 °C 1016.5 hPa ESE 3.2 km/h 12.9 km/h 51 % 0.0 mm 728.0 W/m2 FEW
12:25 30.2 °C 18.3 °C 1016.5 hPa SSE 9.7 km/h 12.9 km/h 49 % 0.0 mm 751.0 W/m2 CLR
12:28 30.2 °C 18.0 °C 1016.8 hPa SE 6.4 km/h 6.4 km/h 48 % 0.0 mm 744.0 W/m2 CLR
12:33 30.4 °C 17.8 °C 1016.5 hPa ESE 6.4 km/h 6.4 km/h 47 % 0.0 mm 703.0 W/m2 CLR
12:39 30.5 °C 17.9 °C 1016.5 hPa SSW 5.6 km/h 5.6 km/h 47 % 0.0 mm 687.0 W/m2 FEW
12:44 30.7 °C 18.4 °C 1016.5 hPa East 1.9 km/h 1.9 km/h 48 % 0.0 mm 642.0 W/m2 FEW
12:49 31.1 °C 18.4 °C 1016.5 hPa ENE 8.0 km/h 8.0 km/h 47 % 0.0 mm 640.0 W/m2 FEW
12:54 31.1 °C 17.8 °C 1016.5 hPa ESE 12.9 km/h 12.9 km/h 45 % 0.0 mm 617.0 W/m2 FEW
12:59 31.3 °C 17.9 °C 1016.5 hPa North 6.4 km/h 6.4 km/h 45 % 0.0 mm 629.0 W/m2 FEW
13:04 31.3 °C 18.3 °C 1016.5 hPa NW 3.2 km/h 3.2 km/h 46 % 0.0 mm 708.0 W/m2 FEW
13:09 31.7 °C 17.9 °C 1016.5 hPa SE 6.4 km/h 6.4 km/h 44 % 0.0 mm 768.0 W/m2 FEW
13:14 32.1 °C 18.3 °C 1016.5 hPa SSE 8.0 km/h 8.0 km/h 44 % 0.0 mm 766.0 W/m2 CLR
13:19 32.2 °C 18.0 °C 1016.5 hPa SSE 6.4 km/h 6.4 km/h 43 % 0.0 mm 779.0 W/m2 CLR
13:24 32.2 °C 18.7 °C 1016.5 hPa East 3.7 km/h 3.7 km/h 45 % 0.0 mm 770.0 W/m2 CLR
13:29 32.4 °C 18.6 °C 1016.5 hPa SSE 3.7 km/h 3.7 km/h 44 % 0.0 mm 803.0 W/m2 CLR
13:34 32.8 °C 18.6 °C 1016.5 hPa South 6.4 km/h 6.4 km/h 43 % 0.0 mm 812.0 W/m2 FEW
13:39 32.9 °C 18.7 °C 1016.1 hPa ESE 12.9 km/h 12.9 km/h 43 % 0.0 mm 809.0 W/m2 FEW
13:44 32.5 °C 18.3 °C 1016.1 hPa East 11.1 km/h 11.1 km/h 43 % 0.0 mm 784.0 W/m2 FEW
13:49 32.1 °C 18.3 °C 1016.1 hPa ENE 8.0 km/h 8.0 km/h 44 % 0.0 mm 751.0 W/m2 FEW
13:54 31.9 °C 18.1 °C 1016.1 hPa NE 9.7 km/h 9.7 km/h 44 % 0.0 mm 756.0 W/m2 FEW
13:59 31.7 °C 18.3 °C 1016.1 hPa North 8.0 km/h 8.0 km/h 45 % 0.0 mm 700.0 W/m2 FEW
14:04 31.8 °C 18.8 °C 1016.1 hPa North 3.7 km/h 3.7 km/h 46 % 0.0 mm 584.0 W/m2 FEW
14:09 32.4 °C 18.9 °C 1016.1 hPa NNW 3.7 km/h 3.7 km/h 45 % 0.0 mm 780.0 W/m2 FEW
14:15 32.3 °C 17.8 °C 1016.1 hPa NE 6.4 km/h 6.4 km/h 42 % 0.0 mm 812.0 W/m2 FEW
14:20 32.1 °C 17.9 °C 1016.1 hPa NNE 4.8 km/h 9.7 km/h 43 % 0.0 mm 810.0 W/m2 FEW
14:25 32.1 °C 18.3 °C 1015.8 hPa North 4.8 km/h 8.0 km/h 44 % 0.0 mm 689.0 W/m2 FEW
14:30 31.9 °C 18.2 °C 1015.8 hPa NNE 1.6 km/h 6.4 km/h 44 % 0.0 mm 805.0 W/m2 FEW
14:35 32.2 °C 18.1 °C 1015.8 hPa North 1.6 km/h 6.4 km/h 43 % 0.0 mm 791.0 W/m2 FEW
14:40 32.4 °C 17.8 °C 1015.8 hPa NNE 8.0 km/h 11.3 km/h 42 % 0.0 mm 779.0 W/m2 FEW
14:45 31.9 °C 17.8 °C 1015.8 hPa ENE 8.0 km/h 12.9 km/h 43 % 0.0 mm 768.0 W/m2 FEW
14:50 31.8 °C 17.7 °C 1015.5 hPa ENE 4.8 km/h 8.0 km/h 43 % 0.0 mm 765.0 W/m2 FEW
14:55 31.8 °C 18.1 °C 1015.5 hPa ENE 8.0 km/h 11.3 km/h 44 % 0.0 mm 754.0 W/m2 FEW
15:00 31.8 °C 18.0 °C 1015.1 hPa NE 3.2 km/h 11.3 km/h 44 % 0.0 mm 749.0 W/m2 FEW
15:05 32.0 °C 17.8 °C 1015.1 hPa North 4.8 km/h 8.0 km/h 43 % 0.0 mm 737.0 W/m2 FEW
15:10 32.1 °C 17.9 °C 1015.5 hPa North 4.8 km/h 9.7 km/h 43 % 0.0 mm 740.0 W/m2 FEW
15:15 32.1 °C 17.6 °C 1015.5 hPa ENE 8.0 km/h 12.9 km/h 42 % 0.0 mm 729.0 W/m2 FEW
15:20 32.3 °C 17.4 °C 1015.1 hPa ESE 1.6 km/h 9.7 km/h 41 % 0.0 mm 724.0 W/m2 FEW
15:25 32.7 °C 17.3 °C 1015.1 hPa ENE 1.6 km/h 8.0 km/h 40 % 0.0 mm 722.0 W/m2 FEW
15:30 32.7 °C 17.3 °C 1015.1 hPa NE 1.6 km/h   40 % 0.0 mm 722.0 W/m2 FEW
15:35 32.7 °C 17.3 °C 1015.1 hPa NE 1.6 km/h   40 % 0.0 mm 722.0 W/m2 FEW
15:40 32.7 °C 17.3 °C 1015.1 hPa NE 1.6 km/h   40 % 0.0 mm 722.0 W/m2 FEW
15:45 32.7 °C 17.3 °C 1015.1 hPa Calm   1.1 km/h 40 % 0.0 mm 722.0 W/m2 FEW
15:50 32.7 °C 17.3 °C 1015.1 hPa NE 1.6 km/h   40 % 0.0 mm 722.0 W/m2 FEW
15:55 32.7 °C 17.3 °C 1015.1 hPa NE 1.6 km/h   40 % 0.0 mm 722.0 W/m2 FEW
16:00 32.7 °C 17.3 °C 1015.1 hPa NE 1.6 km/h   40 % 0.0 mm 722.0 W/m2 FEW
16:05 32.7 °C 17.3 °C 1015.1 hPa NE 1.6 km/h   40 % 0.0 mm 722.0 W/m2 FEW
16:10 32.7 °C 17.3 °C 1015.1 hPa NE 1.6 km/h   40 % 0.0 mm 722.0 W/m2 FEW
16:15 32.7 °C 17.3 °C 1015.1 hPa NE 1.6 km/h   40 % 0.0 mm 722.0 W/m2 FEW
16:20 32.7 °C 17.3 °C 1015.1 hPa NE 1.6 km/h   40 % 0.0 mm 722.0 W/m2 FEW
16:25 32.7 °C 17.3 °C 1015.1 hPa NE 1.6 km/h   40 % 0.0 mm 722.0 W/m2 FEW
16:30 32.7 °C 17.3 °C 1015.1 hPa NE 1.6 km/h   40 % 0.0 mm 722.0 W/m2 FEW
16:35 32.7 °C 17.3 °C 1015.1 hPa NE 1.6 km/h   40 % 0.0 mm 722.0 W/m2 CLR
16:40 32.7 °C 17.3 °C 1015.1 hPa NE 1.6 km/h   40 % 0.0 mm 722.0 W/m2 CLR
16:45 32.7 °C 17.3 °C 1015.1 hPa NE 1.6 km/h   40 % 0.0 mm 722.0 W/m2 CLR
16:50 32.7 °C 17.3 °C 1015.1 hPa NE 1.6 km/h   40 % 0.0 mm 722.0 W/m2 CLR
16:55 32.7 °C 17.3 °C 1015.1 hPa NE 1.6 km/h   40 % 0.0 mm 722.0 W/m2 CLR
17:00 32.7 °C 17.3 °C 1015.1 hPa NE 1.6 km/h   40 % 0.0 mm 722.0 W/m2 CLR
17:05 32.7 °C 17.3 °C 1015.1 hPa NE 1.6 km/h   40 % 0.0 mm 722.0 W/m2 CLR
17:10 32.7 °C 17.3 °C 1015.1 hPa NE 1.6 km/h   40 % 0.0 mm 722.0 W/m2 CLR
17:15 32.7 °C 17.3 °C 1015.1 hPa NE 1.6 km/h   40 % 0.0 mm 722.0 W/m2 CLR
17:20 32.7 °C 17.3 °C 1015.1 hPa NE 1.6 km/h   40 % 0.0 mm 722.0 W/m2 CLR
Juneau County Weather
Compliments of Weather Underground - 3 mb